Time;durP1;ratioP1;P1;durP2;ratioP2;P2;SDS_P1;SDS_P2;PMS_P1;PMS_P2;Temp;Humidity;BMP_temperature;BMP_pressure;BME280_temperature;BME280_humidity;BME280_pressure;Samples;Min_cycle;Max_cycle;Signal;HPM_P1;HPM_P2
2021/04/15 00:01:31;;;;;;;0.40;0.40;;;4.90;99.90;;;;;;4399203;32;20091;-72
2021/04/15 00:03:56;;;;;;;0.30;0.30;;;4.90;99.90;;;;;;4398692;32;20074;-72
2021/04/15 00:06:26;;;;;;;0.30;0.30;;;4.90;99.90;;;;;;4399832;32;20124;-72
2021/04/15 00:08:53;;;;;;;0.30;0.30;;;4.80;99.90;;;;;;4398877;32;20078;-72
2021/04/15 00:11:21;;;;;;;0.30;0.30;;;4.80;99.90;;;;;;4399133;32;20185;-72
2021/04/15 00:13:50;;;;;;;0.30;0.30;;;4.70;99.90;;;;;;4398628;32;20070;-72
2021/04/15 00:16:17;;;;;;;0.30;0.30;;;4.70;99.90;;;;;;4399165;32;20129;-72
2021/04/15 00:18:43;;;;;;;0.30;0.30;;;4.60;99.90;;;;;;4398859;32;20459;-72
2021/04/15 00:21:10;;;;;;;0.40;0.40;;;4.50;99.90;;;;;;4398850;32;20082;-73
2021/04/15 00:23:36;;;;;;;0.35;0.35;;;4.40;99.90;;;;;;4398525;32;20058;-73
2021/04/15 00:26:04;;;;;;;0.30;0.30;;;4.50;99.90;;;;;;4399130;32;20091;-72
2021/04/15 00:28:29;;;;;;;0.47;0.47;;;4.40;99.90;;;;;;4398185;32;20118;-73
2021/04/15 00:30:55;;;;;;;0.68;0.65;;;4.40;99.90;;;;;;4399913;32;20073;-73
2021/04/15 00:33:21;;;;;;;6.80;1.37;;;4.30;99.90;;;;;;4398728;32;20074;-73
2021/04/15 00:35:48;;;;;;;0.30;0.30;;;4.30;99.90;;;;;;4398931;32;20204;-73
2021/04/15 00:38:15;;;;;;;0.50;0.50;;;4.40;99.90;;;;;;4398100;32;20113;-74
2021/04/15 00:40:43;;;;;;;0.30;0.30;;;4.40;99.90;;;;;;4399021;32;20490;-73
2021/04/15 00:43:09;;;;;;;0.35;0.35;;;4.40;99.90;;;;;;4398393;32;20129;-73
2021/04/15 00:45:43;;;;;;;0.17;0.17;;;4.30;99.90;;;;;;4398623;32;20121;-74
2021/04/15 00:48:33;;;;;;;0.50;0.50;;;4.30;99.90;;;;;;4398743;32;20515;-74
2021/04/15 00:51:08;;;;;;;0.28;0.28;;;4.40;99.90;;;;;;4387643;32;20082;-74
2021/04/15 00:53:44;;;;;;;0.30;0.30;;;4.30;99.90;;;;;;4397213;32;20517;-74
2021/04/15 00:56:11;;;;;;;0.30;0.30;;;4.30;99.90;;;;;;4398569;32;20422;-74
2021/04/15 00:58:37;;;;;;;0.25;0.25;;;4.40;99.90;;;;;;4398393;32;20422;-72
2021/04/15 01:01:04;;;;;;;0.28;0.28;;;4.50;99.90;;;;;;4399213;32;20078;-72
2021/04/15 01:03:32;;;;;;;2.80;0.60;;;4.50;99.90;;;;;;4397517;32;20071;-73
2021/04/15 01:05:57;;;;;;;0.30;0.30;;;4.40;99.90;;;;;;4398760;32;20069;-73
2021/04/15 01:08:23;;;;;;;0.30;0.30;;;4.30;99.90;;;;;;4398064;32;20065;-73
2021/04/15 01:11:17;;;;;;;0.32;0.32;;;4.10;99.90;;;;;;4398050;32;20074;-73
2021/04/15 01:14:11;;;;;;;0.40;0.40;;;4.00;99.90;;;;;;4387322;32;20062;-73
2021/04/15 01:17:16;;;;;;;0.30;0.30;;;3.90;99.90;;;;;;4387144;32;20121;-74
2021/04/15 01:20:15;;;;;;;0.20;0.20;;;3.80;99.90;;;;;;4387709;32;20091;-73
2021/04/15 01:22:52;;;;;;;0.30;0.30;;;3.70;99.90;;;;;;4387717;32;20081;-73
2021/04/15 01:25:31;;;;;;;0.30;0.30;;;3.80;99.90;;;;;;4397621;32;20086;-73
2021/04/15 01:28:08;;;;;;;0.30;0.30;;;3.80;99.90;;;;;;4399760;32;20083;-73
2021/04/15 01:30:46;;;;;;;0.25;0.25;;;3.80;99.90;;;;;;4398852;32;20139;-73
2021/04/15 01:33:16;;;;;;;0.30;0.30;;;3.80;99.90;;;;;;4398243;32;20070;-73
2021/04/15 01:35:46;;;;;;;;;;;3.90;99.90;;;;;;4399080;32;20061;-73
2021/04/15 01:38:21;;;;;;;1.20;1.00;;;4.00;99.90;;;;;;4397901;32;19968;-73
2021/04/15 01:40:51;;;;;;;0.30;0.30;;;4.00;99.90;;;;;;4398043;32;20043;-73
2021/04/15 01:43:27;;;;;;;0.25;0.25;;;4.10;99.90;;;;;;4398435;32;20213;-73
2021/04/15 01:45:54;;;;;;;1.15;0.50;;;4.10;99.90;;;;;;4397975;32;20054;-74
2021/04/15 01:48:24;;;;;;;8.10;1.05;;;4.10;99.90;;;;;;4399128;32;20058;-74
2021/04/15 01:50:55;;;;;;;0.30;0.30;;;4.10;99.90;;;;;;4398441;32;20058;-73
2021/04/15 01:53:35;;;;;;;0.30;0.30;;;4.00;99.90;;;;;;4397033;32;20130;-73
2021/04/15 01:56:09;;;;;;;0.30;0.30;;;3.90;99.90;;;;;;4398827;32;20132;-73
2021/04/15 01:58:47;;;;;;;0.30;0.30;;;3.90;99.90;;;;;;4398623;32;20423;-73
2021/04/15 02:01:17;;;;;;;0.28;0.28;;;3.90;99.90;;;;;;4399075;32;20058;-73
2021/04/15 02:03:45;;;;;;;0.40;0.40;;;4.00;99.90;;;;;;4397871;32;20137;-73
2021/04/15 02:06:19;;;;;;;0.30;0.30;;;3.90;99.90;;;;;;4397545;32;20588;-74
2021/04/15 02:08:47;;;;;;;0.20;0.20;;;4.00;99.90;;;;;;4397521;32;20077;-74
2021/04/15 02:11:28;;;;;;;0.43;0.43;;;4.10;99.90;;;;;;4397805;32;20502;-74
2021/04/15 02:13:56;;;;;;;0.30;0.30;;;4.10;99.90;;;;;;4397911;32;20087;-74
2021/04/15 02:16:27;;;;;;;0.68;0.60;;;4.10;99.90;;;;;;4398546;32;20062;-74
2021/04/15 02:19:01;;;;;;;0.32;0.32;;;4.00;99.90;;;;;;4397995;32;20071;-74
2021/04/15 02:21:47;;;;;;;0.30;0.30;;;4.00;99.90;;;;;;4397638;32;20463;-74
2021/04/15 02:24:25;;;;;;;0.30;0.30;;;4.00;99.90;;;;;;4386869;32;20069;-72
2021/04/15 02:26:57;;;;;;;0.20;0.20;;;3.90;99.90;;;;;;4397265;32;20086;-72
2021/04/15 02:29:25;;;;;;;0.40;0.40;;;3.80;99.90;;;;;;4397811;32;20187;-74
2021/04/15 02:32:05;;;;;;;0.30;0.30;;;3.80;99.90;;;;;;4398160;32;20070;-72
2021/04/15 02:34:35;;;;;;;0.40;0.40;;;3.80;99.90;;;;;;4396786;32;20116;-72
2021/04/15 02:37:11;;;;;;;0.30;0.30;;;3.70;99.90;;;;;;4397375;32;20083;-71
2021/04/15 02:39:42;;;;;;;0.20;0.20;;;3.60;99.90;;;;;;4397090;32;20069;-72
2021/04/15 02:42:11;;;;;;;0.30;0.30;;;3.70;99.90;;;;;;4397621;32;20058;-72
2021/04/15 02:44:48;;;;;;;0.30;0.30;;;3.70;99.90;;;;;;4397563;32;20494;-72
2021/04/15 02:47:19;;;;;;;0.40;0.40;;;3.60;99.90;;;;;;4398331;32;20112;-72
2021/04/15 02:49:47;;;;;;;0.30;0.30;;;3.70;99.90;;;;;;4398441;32;20409;-72
2021/04/15 02:52:18;;;;;;;0.30;0.30;;;3.70;99.90;;;;;;4398206;32;20070;-72
2021/04/15 02:54:50;;;;;;;0.60;0.60;;;3.70;99.90;;;;;;4399832;32;20082;-72
2021/04/15 02:57:28;;;;;;;0.73;0.73;;;3.70;99.90;;;;;;4399695;32;20069;-72
2021/04/15 02:59:59;;;;;;;2.75;0.82;;;3.80;99.90;;;;;;4400032;32;20074;-72
2021/04/15 03:02:31;;;;;;;0.47;0.47;;;3.80;99.90;;;;;;4399700;32;20412;-72
2021/04/15 03:05:03;;;;;;;0.30;0.30;;;3.70;99.90;;;;;;4399222;32;20606;-72
2021/04/15 03:07:31;;;;;;;0.98;0.70;;;3.80;99.90;;;;;;4399836;32;20560;-72
2021/04/15 03:09:59;;;;;;;0.40;0.40;;;3.70;99.90;;;;;;4398324;32;20081;-73
2021/04/15 03:12:47;;;;;;;0.40;0.40;;;3.70;99.90;;;;;;4385029;32;20476;-73
2021/04/15 03:15:27;;;;;;;0.28;0.28;;;3.70;99.90;;;;;;4384383;32;20075;-74
2021/04/15 03:17:58;;;;;;;0.35;0.35;;;3.70;99.90;;;;;;4384513;32;20074;-74
2021/04/15 03:20:29;;;;;;;0.37;0.37;;;3.70;99.90;;;;;;4385240;32;20170;-73
2021/04/15 03:22:57;;;;;;;;;;;3.70;99.90;;;;;;4384112;32;20218;-73
2021/04/15 03:25:23;;;;;;;0.30;0.30;;;3.60;99.90;;;;;;4384527;32;19954;-73
2021/04/15 03:27:55;;;;;;;0.40;0.40;;;3.60;99.90;;;;;;4385215;32;20147;-73
2021/04/15 03:30:45;;;;;;;0.70;0.70;;;3.50;99.90;;;;;;4385442;32;20086;-73
2021/04/15 03:33:18;;;;;;;0.80;0.68;;;3.40;99.90;;;;;;4375191;32;20421;-73
2021/04/15 03:35:50;;;;;;;0.37;0.37;;;3.30;99.90;;;;;;4384414;32;20152;-73
2021/04/15 03:38:24;;;;;;;3.40;1.95;;;3.40;99.90;;;;;;4384079;32;20070;-73
2021/04/15 03:40:56;;;;;;;0.70;0.70;;;3.40;99.90;;;;;;4391713;32;20117;-73
2021/04/15 03:43:29;;;;;;;0.30;0.30;;;3.40;99.90;;;;;;4399503;32;20085;-73
2021/04/15 03:46:16;;;;;;;0.37;0.37;;;3.50;99.90;;;;;;4399588;32;20081;-73
2021/04/15 03:48:46;;;;;;;0.40;0.40;;;3.40;99.90;;;;;;4398978;32;20120;-73
2021/04/15 03:51:19;;;;;;;0.25;0.25;;;3.40;99.90;;;;;;4399124;32;20066;-73
2021/04/15 03:53:50;;;;;;;1.98;1.55;;;3.30;99.90;;;;;;4399055;32;20501;-73
2021/04/15 03:56:22;;;;;;;0.65;0.47;;;3.40;99.90;;;;;;4398981;32;20109;-73
2021/04/15 03:59:11;;;;;;;0.40;0.40;;;3.30;99.90;;;;;;4399364;32;20458;-73
2021/04/15 04:01:43;;;;;;;0.30;0.30;;;3.30;99.90;;;;;;4388557;32;20200;-73
2021/04/15 04:04:31;;;;;;;0.43;0.43;;;3.40;99.90;;;;;;4400423;32;20070;-73
2021/04/15 04:07:01;;;;;;;0.20;0.20;;;3.40;99.90;;;;;;4398979;32;20444;-73
2021/04/15 04:09:33;;;;;;;0.30;0.30;;;3.40;99.90;;;;;;4399484;32;20680;-73
2021/04/15 04:12:01;;;;;;;1.85;0.73;;;3.50;99.90;;;;;;4398785;32;20066;-73
2021/04/15 04:14:37;;;;;;;0.30;0.30;;;3.50;99.90;;;;;;4399698;32;20511;-73
2021/04/15 04:17:07;;;;;;;0.30;0.30;;;3.60;99.90;;;;;;4399510;32;20074;-73
2021/04/15 04:19:42;;;;;;;0.53;0.53;;;3.50;99.90;;;;;;4400176;32;20584;-73
2021/04/15 04:22:33;;;;;;;0.65;0.65;;;3.50;99.90;;;;;;4388531;32;20055;-73
2021/04/15 04:25:38;;;;;;;0.55;0.55;;;3.40;99.90;;;;;;4382324;32;20094;-73
2021/04/15 04:28:14;;;;;;;1.30;1.05;;;3.40;99.90;;;;;;4378691;32;20124;-73
2021/04/15 04:30:48;;;;;;;0.40;0.40;;;3.50;99.90;;;;;;4398512;32;20058;-74
2021/04/15 04:33:16;;;;;;;0.30;0.30;;;3.50;99.90;;;;;;4398954;32;20066;-73
2021/04/15 04:35:46;;;;;;;0.30;0.30;;;3.50;99.90;;;;;;4399331;32;20484;-73
2021/04/15 04:38:15;;;;;;;0.82;0.70;;;3.40;99.90;;;;;;4398320;32;20086;-73
2021/04/15 04:40:45;;;;;;;2.83;0.80;;;3.30;99.90;;;;;;4398653;32;20138;-73
2021/04/15 04:43:33;;;;;;;0.50;0.50;;;3.30;99.90;;;;;;4400424;32;20058;-73
2021/04/15 04:46:11;;;;;;;2.00;0.70;;;3.20;99.90;;;;;;4387186;32;20609;-73
2021/04/15 04:48:42;;;;;;;0.50;0.50;;;3.30;99.90;;;;;;4399168;32;20133;-73
2021/04/15 04:51:13;;;;;;;0.50;0.50;;;3.30;99.90;;;;;;4398831;32;20086;-73
2021/04/15 04:53:41;;;;;;;2.53;1.65;;;3.30;99.90;;;;;;4398406;32;20153;-73
2021/04/15 04:56:25;;;;;;;0.40;0.40;;;3.30;99.90;;;;;;4398630;32;20132;-73
2021/04/15 04:58:55;;;;;;;0.40;0.40;;;3.40;99.90;;;;;;4398337;32;20133;-74
2021/04/15 05:01:21;;;;;;;0.37;0.37;;;3.40;99.90;;;;;;4394343;32;20153;-73
2021/04/15 05:03:46;;;;;;;0.77;0.77;;;3.50;99.90;;;;;;4388938;32;20510;-73
2021/04/15 05:06:23;;;;;;;0.30;0.30;;;3.50;99.90;;;;;;4392318;32;20500;-73
2021/04/15 05:09:28;;;;;;;15.45;0.93;;;3.60;99.90;;;;;;4397533;32;20272;-73
2021/04/15 05:11:54;;;;;;;0.40;0.40;;;3.60;99.90;;;;;;4383245;32;20073;-73
2021/04/15 05:14:23;;;;;;;0.30;0.30;;;3.80;99.90;;;;;;4394644;32;20075;-73
2021/04/15 05:16:54;;;;;;;0.45;0.45;;;3.80;99.90;;;;;;4378360;32;20234;-73
2021/04/15 05:19:20;;;;;;;3.55;1.02;;;3.80;99.90;;;;;;4385241;32;20609;-73
2021/04/15 05:21:48;;;;;;;0.57;0.55;;;3.80;99.90;;;;;;4393512;32;20514;-73
2021/04/15 05:24:22;;;;;;;0.35;0.35;;;3.90;99.90;;;;;;4394368;32;20082;-73
2021/04/15 05:26:49;;;;;;;0.30;0.30;;;3.90;99.90;;;;;;4385514;32;20094;-74
2021/04/15 05:29:20;;;;;;;0.40;0.40;;;3.90;99.90;;;;;;4383305;32;20664;-74
2021/04/15 05:31:48;;;;;;;0.37;0.37;;;3.90;99.90;;;;;;4368531;32;20322;-73
2021/04/15 05:34:43;;;;;;;0.82;0.82;;;3.90;99.90;;;;;;4379969;32;20065;-73
2021/04/15 05:37:15;;;;;;;0.32;0.32;;;4.10;99.90;;;;;;4373089;32;20090;-73
2021/04/15 05:39:42;;;;;;;0.30;0.30;;;4.20;99.90;;;;;;4391132;32;20066;-73
2021/04/15 05:42:29;;;;;;;1.15;0.77;;;4.20;99.90;;;;;;4393826;32;20082;-74
2021/04/15 05:45:05;;;;;;;0.30;0.30;;;4.30;99.90;;;;;;4377568;32;20129;-73
2021/04/15 05:47:40;;;;;;;0.30;0.30;;;4.30;99.90;;;;;;4391351;32;20089;-73
2021/04/15 05:50:15;;;;;;;0.50;0.50;;;4.30;99.90;;;;;;4398222;32;20150;-74
2021/04/15 05:52:46;;;;;;;1.08;0.45;;;4.40;99.90;;;;;;4389928;32;20150;-73
2021/04/15 05:55:16;;;;;;;0.37;0.37;;;4.50;99.90;;;;;;4396228;32;20078;-72
2021/04/15 05:57:46;;;;;;;0.50;0.50;;;4.50;99.90;;;;;;4391363;32;20065;-72
2021/04/15 06:00:17;;;;;;;0.50;0.50;;;4.50;99.90;;;;;;4388497;32;20081;-73
2021/04/15 06:03:11;;;;;;;0.50;0.50;;;4.60;99.90;;;;;;4391438;32;20085;-73
2021/04/15 06:06:13;;;;;;;0.60;0.60;;;4.50;99.90;;;;;;4393415;32;20063;-72
2021/04/15 06:08:42;;;;;;;0.30;0.30;;;4.60;99.90;;;;;;4382661;32;20193;-73
2021/04/15 06:11:23;;;;;;;0.30;0.30;;;4.50;99.90;;;;;;4387477;32;20138;-72
2021/04/15 06:13:52;;;;;;;0.30;0.30;;;4.60;99.90;;;;;;4389917;32;20700;-72
2021/04/15 06:16:25;;;;;;;0.37;0.37;;;4.70;99.90;;;;;;4390310;32;20503;-72
2021/04/15 06:19:10;;;;;;;0.40;0.40;;;4.80;99.90;;;;;;4391544;32;20065;-73
2021/04/15 06:21:43;;;;;;;0.55;0.55;;;4.90;99.90;;;;;;4386860;32;20404;-73
2021/04/15 06:24:22;;;;;;;0.25;0.25;;;5.00;99.90;;;;;;4388194;32;20464;-73
2021/04/15 06:26:50;;;;;;;0.30;0.30;;;5.10;99.90;;;;;;4385701;32;20075;-73
2021/04/15 06:29:25;;;;;;;0.25;0.25;;;5.10;99.90;;;;;;4389038;32;20081;-74
2021/04/15 06:31:55;;;;;;;0.47;0.47;;;5.20;99.90;;;;;;4383882;32;20078;-73
2021/04/15 06:34:22;;;;;;;0.50;0.50;;;5.20;99.90;;;;;;4382254;32;20078;-73
2021/04/15 06:37:00;;;;;;;0.80;0.65;;;5.30;99.90;;;;;;4382174;32;20515;-73
2021/04/15 06:39:32;;;;;;;0.30;0.30;;;5.40;99.90;;;;;;4389069;32;20603;-74
2021/04/15 06:42:31;;;;;;;0.20;0.20;;;5.40;99.90;;;;;;4392318;32;20527;-73
2021/04/15 06:45:08;;;;;;;0.40;0.40;;;5.50;99.90;;;;;;4384728;32;20102;-74
2021/04/15 06:48:13;;;;;;;0.43;0.43;;;5.60;99.90;;;;;;4376292;32;20085;-74
2021/04/15 06:51:14;;;;;;;0.22;0.22;;;5.70;99.90;;;;;;4376269;32;20206;-74
2021/04/15 06:53:56;;;;;;;0.20;0.20;;;5.90;99.90;;;;;;4382359;32;20086;-73
2021/04/15 06:56:43;;;;;;;0.40;0.40;;;6.00;99.90;;;;;;4392470;32;20090;-74
2021/04/15 06:59:32;;;;;;;0.47;0.47;;;6.00;99.90;;;;;;4379686;32;20062;-74
2021/04/15 07:02:09;;;;;;;0.50;0.50;;;6.00;99.90;;;;;;4377631;32;20086;-73
2021/04/15 07:04:50;;;;;;;0.45;0.40;;;5.90;99.90;;;;;;4387592;32;20086;-74
2021/04/15 07:07:19;;;;;;;;;;;6.00;99.90;;;;;;4391833;32;20188;-73
2021/04/15 07:10:12;;;;;;;0.30;0.30;;;6.20;99.90;;;;;;4387876;32;19957;-74
2021/04/15 07:13:09;;;;;;;0.30;0.30;;;6.20;99.90;;;;;;4376343;32;20310;-73
2021/04/15 07:16:06;;;;;;;0.47;0.47;;;6.20;99.90;;;;;;4379793;32;20530;-73
2021/04/15 07:18:57;;;;;;;0.20;0.20;;;6.30;99.90;;;;;;4376438;32;20117;-73
2021/04/15 07:21:50;;;;;;;0.30;0.30;;;6.50;99.90;;;;;;4389982;32;20070;-72
2021/04/15 07:24:54;;;;;;;0.40;0.40;;;6.50;99.90;;;;;;4379719;32;20077;-71
2021/04/15 07:27:53;;;;;;;0.43;0.43;;;6.60;99.90;;;;;;4375971;32;20106;-72
2021/04/15 07:30:39;;;;;;;0.32;0.32;;;6.70;99.90;;;;;;4383939;32;20077;-71
2021/04/15 07:33:15;;;;;;;0.30;0.30;;;6.60;99.90;;;;;;4389692;32;20082;-71
2021/04/15 07:36:17;;;;;;;0.50;0.50;;;6.70;99.90;;;;;;4390290;32;20532;-71
2021/04/15 07:39:12;;;;;;;0.30;0.30;;;6.80;99.90;;;;;;4379586;32;20437;-71
2021/04/15 07:42:05;;;;;;;0.30;0.30;;;6.90;99.90;;;;;;4376543;32;20077;-69
2021/04/15 07:44:38;;;;;;;0.20;0.20;;;6.90;99.90;;;;;;4377057;32;20074;-70
2021/04/15 07:47:12;;;;;;;0.28;0.28;;;6.90;99.90;;;;;;4394074;32;20574;-70
2021/04/15 07:50:17;;;;;;;0.30;0.30;;;6.90;99.90;;;;;;4389059;32;20081;-69
2021/04/15 07:53:06;;;;;;;0.30;0.30;;;7.10;99.90;;;;;;4376937;32;20688;-69
2021/04/15 07:56:11;;;;;;;0.30;0.30;;;7.20;99.90;;;;;;4390598;32;20101;-70
2021/04/15 07:58:45;;;;;;;0.20;0.20;;;7.30;99.90;;;;;;4380224;32;20421;-70
2021/04/15 08:01:29;;;;;;;0.20;0.20;;;7.40;99.90;;;;;;4387315;32;20077;-70
2021/04/15 08:04:20;;;;;;;0.43;0.43;;;7.50;99.90;;;;;;4392747;32;20690;-70
2021/04/15 08:07:19;;;;;;;0.30;0.30;;;7.40;99.90;;;;;;4390295;32;20337;-70
2021/04/15 08:09:54;;;;;;;0.25;0.25;;;7.50;99.90;;;;;;4383773;32;20531;-70
2021/04/15 08:12:47;;;;;;;0.30;0.30;;;7.60;99.90;;;;;;4393905;32;20082;-70
2021/04/15 08:15:39;;;;;;;0.40;0.40;;;7.80;99.90;;;;;;4381111;32;20066;-70
2021/04/15 08:18:22;;;;;;;0.20;0.20;;;7.80;99.90;;;;;;4380338;32;20090;-70
2021/04/15 08:21:13;;;;;;;0.30;0.30;;;7.90;99.90;;;;;;4383716;32;20066;-70
2021/04/15 08:24:01;;;;;;;4.37;0.62;;;8.10;99.90;;;;;;4385053;32;20098;-70
2021/04/15 08:26:55;;;;;;;0.30;0.30;;;8.20;99.90;;;;;;4391611;32;20082;-69
2021/04/15 08:29:42;;;;;;;0.32;0.32;;;8.20;99.90;;;;;;4378422;32;20073;-69
2021/04/15 08:32:17;;;;;;;0.40;0.40;;;8.10;99.90;;;;;;4382427;32;20082;-70
2021/04/15 08:35:15;;;;;;;0.30;0.30;;;7.90;99.90;;;;;;4393257;32;20066;-69
2021/04/15 08:37:54;;;;;;;0.40;0.40;;;7.90;99.90;;;;;;4388473;32;20089;-71
2021/04/15 08:40:51;;;;;;;0.50;0.50;;;8.30;99.90;;;;;;4395539;32;20514;-71
2021/04/15 08:43:40;;;;;;;0.30;0.30;;;8.30;99.90;;;;;;4385027;32;20173;-71
2021/04/15 08:46:18;;;;;;;0.30;0.30;;;8.30;99.90;;;;;;4382764;32;20069;-70
2021/04/15 08:49:23;;;;;;;0.30;0.30;;;8.20;99.90;;;;;;4396011;32;20094;-69
2021/04/15 08:52:11;;;;;;;0.30;0.30;;;8.30;99.90;;;;;;4381702;32;20511;-70
2021/04/15 08:54:59;;;;;;;0.45;0.45;;;8.40;98.90;;;;;;4393195;32;20485;-71
2021/04/15 08:58:03;;;;;;;0.40;0.40;;;8.50;98.80;;;;;;4380021;32;20077;-71
2021/04/15 09:00:59;;;;;;;1.45;0.52;;;8.40;98.90;;;;;;4376022;32;20066;-70
2021/04/15 09:03:39;;;;;;;0.50;0.50;;;8.30;99.40;;;;;;4376084;32;20070;-70
2021/04/15 09:06:37;;;;;;;0.30;0.30;;;8.40;99.70;;;;;;4394402;32;20163;-70
2021/04/15 09:09:30;;;;;;;0.35;0.35;;;8.60;99.70;;;;;;4390778;32;20121;-70
2021/04/15 09:12:06;;;;;;;0.45;0.40;;;8.90;98.80;;;;;;4379425;32;20150;-70
2021/04/15 09:14:54;;;;;;;0.62;0.43;;;8.90;98.90;;;;;;4388197;32;20105;-69
2021/04/15 09:17:32;;;;;;;0.22;0.22;;;9.00;98.70;;;;;;4375731;32;20519;-71
2021/04/15 09:20:24;;;;;;;0.30;0.30;;;9.20;98.10;;;;;;4387632;32;20070;-71
2021/04/15 09:23:11;;;;;;;0.28;0.28;;;9.20;97.60;;;;;;4377687;32;20081;-72
2021/04/15 09:25:43;;;;;;;2.35;0.65;;;9.30;96.70;;;;;;4377745;32;20070;-72
2021/04/15 09:28:26;;;;;;;0.40;0.40;;;9.40;95.60;;;;;;4388157;32;20086;-74
2021/04/15 09:31:16;;;;;;;0.30;0.30;;;9.30;94.50;;;;;;4388259;32;20094;-74
2021/04/15 09:34:14;;;;;;;0.80;0.68;;;9.20;94.90;;;;;;4369415;32;20261;-74
2021/04/15 09:36:56;;;;;;;0.30;0.30;;;9.30;95.00;;;;;;4373378;32;20635;-73
2021/04/15 09:39:56;;;;;;;0.35;0.35;;;9.80;93.80;;;;;;4384657;32;92903;-73
2021/04/15 09:42:50;;;;;;;0.30;0.30;;;9.80;92.20;;;;;;4377367;32;20142;-74
2021/04/15 09:45:39;;;;;;;0.28;0.28;;;9.90;90.90;;;;;;4380070;32;20530;-75
2021/04/15 09:48:35;;;;;;;0.30;0.30;;;10.00;89.10;;;;;;4373950;32;20653;-73
2021/04/15 09:51:08;;;;;;;0.30;0.30;;;10.20;87.50;;;;;;4378329;32;20075;-74
2021/04/15 09:54:02;;;;;;;0.30;0.30;;;10.30;85.50;;;;;;4389076;32;20334;-74
2021/04/15 09:57:07;;;;;;;0.65;0.65;;;10.40;84.30;;;;;;4378501;32;20551;-74
2021/04/15 10:00:12;;;;;;;0.40;0.40;;;10.60;80.20;;;;;;4369944;32;20201;-74
2021/04/15 10:02:52;;;;;;;0.20;0.20;;;10.20;79.70;;;;;;4383611;32;20070;-73
2021/04/15 10:05:39;;;;;;;0.30;0.30;;;10.10;81.10;;;;;;4389779;32;20519;-73
2021/04/15 10:08:14;;;;;;;0.30;0.30;;;10.40;80.10;;;;;;4393002;32;20078;-73
2021/04/15 10:10:48;;;;;;;0.25;0.25;;;10.30;78.80;;;;;;4394887;32;20121;-73
2021/04/15 10:13:42;;;;;;;0.30;0.30;;;10.20;80.20;;;;;;4394708;32;20058;-73
2021/04/15 10:16:35;;;;;;;0.40;0.40;;;10.50;78.80;;;;;;4381456;32;20092;-73
2021/04/15 10:19:40;;;;;;;0.30;0.30;;;10.40;77.80;;;;;;4394432;32;20124;-74
2021/04/15 10:22:30;;;;;;;0.30;0.30;;;10.50;78.20;;;;;;4381627;32;20567;-72
2021/04/15 10:25:07;;;;;;;0.20;0.20;;;10.80;75.40;;;;;;4383924;32;20467;-75
2021/04/15 10:27:58;;;;;;;0.90;0.43;;;10.60;76.10;;;;;;4389249;32;20087;-72
2021/04/15 10:31:04;;;;;;;0.30;0.30;;;10.50;75.80;;;;;;4383837;32;20073;-71
2021/04/15 10:34:03;;;;;;;0.30;0.30;;;10.30;76.20;;;;;;4369816;32;20515;-72
2021/04/15 10:36:48;;;;;;;0.20;0.20;;;10.10;74.90;;;;;;4378490;32;20078;-72
2021/04/15 10:39:42;;;;;;;0.30;0.30;;;9.90;75.30;;;;;;4392107;32;20070;-71
2021/04/15 10:42:42;;;;;;;0.30;0.30;;;10.00;77.60;;;;;;4382022;32;20058;-71
2021/04/15 10:45:13;;;;;;;0.20;0.20;;;9.70;78.70;;;;;;4378751;32;20066;-70
2021/04/15 10:47:41;;;;;;;0.20;0.20;;;9.90;79.40;;;;;;4389523;32;20066;-71
2021/04/15 10:50:26;;;;;;;0.30;0.30;;;10.00;78.60;;;;;;4387743;32;20089;-71
2021/04/15 10:53:31;;;;;;;0.30;0.30;;;9.70;78.70;;;;;;4387766;32;20599;-72
2021/04/15 10:56:08;;;;;;;3.92;0.65;;;9.90;79.70;;;;;;4359736;32;20118;-72
2021/04/15 10:58:41;;;;;;;0.28;0.28;;;9.90;79.10;;;;;;4383919;32;20137;-71
2021/04/15 11:01:29;;;;;;;0.20;0.20;;;9.80;78.30;;;;;;4383466;32;20593;-73
2021/04/15 11:03:57;;;;;;;0.40;0.40;;;9.80;80.90;;;;;;4380094;32;20062;-73
2021/04/15 11:06:48;;;;;;;1.27;0.93;;;9.70;81.10;;;;;;4389232;32;20955;-73
2021/04/15 11:09:30;;;;;;;0.43;0.43;;;9.80;83.00;;;;;;4375357;32;20082;-73
2021/04/15 11:12:14;;;;;;;0.20;0.20;;;9.60;83.40;;;;;;4387395;32;20086;-72
2021/04/15 11:15:06;;;;;;;0.40;0.40;;;9.60;82.80;;;;;;4387579;32;20488;-72
2021/04/15 11:17:37;;;;;;;0.20;0.20;;;9.50;81.80;;;;;;4391331;32;20131;-72
2021/04/15 11:20:07;;;;;;;;;;;9.70;82.40;;;;;;4394894;32;20070;-72
2021/04/15 11:22:36;;;;;;;1.17;0.82;;;9.80;81.00;;;;;;4395640;32;19946;-72
2021/04/15 11:25:23;;;;;;;0.32;0.32;;;9.80;80.80;;;;;;4391462;32;20058;-72
2021/04/15 11:27:50;;;;;;;0.40;0.40;;;9.90;79.90;;;;;;4379658;32;20101;-72
2021/04/15 11:30:36;;;;;;;0.30;0.30;;;9.80;80.50;;;;;;4392934;32;20082;-73
2021/04/15 11:33:04;;;;;;;0.20;0.20;;;10.00;81.60;;;;;;4386457;32;20120;-72
2021/04/15 11:35:29;;;;;;;0.30;0.30;;;10.10;82.90;;;;;;4390124;32;20074;-71
2021/04/15 11:38:16;;;;;;;0.30;0.30;;;10.20;82.40;;;;;;4391593;32;20082;-72
2021/04/15 11:40:46;;;;;;;0.35;0.35;;;10.00;83.50;;;;;;4379533;32;20532;-72
2021/04/15 11:43:38;;;;;;;0.22;0.22;;;9.90;83.00;;;;;;4390294;32;20098;-72
2021/04/15 11:46:24;;;;;;;0.30;0.30;;;9.90;83.40;;;;;;4378620;32;20094;-72
2021/04/15 11:49:12;;;;;;;0.20;0.20;;;10.10;84.40;;;;;;4391366;32;20070;-71
2021/04/15 11:51:54;;;;;;;0.30;0.30;;;10.00;84.10;;;;;;4393522;32;20182;-71
2021/04/15 11:54:30;;;;;;;0.22;0.22;;;9.90;85.00;;;;;;4387534;32;20095;-72
2021/04/15 11:56:56;;;;;;;0.35;0.35;;;9.50;86.80;;;;;;4389953;32;20401;-71
2021/04/15 11:59:27;;;;;;;0.30;0.30;;;9.50;88.40;;;;;;4390105;32;20062;-72
2021/04/15 12:01:54;;;;;;;0.35;0.35;;;9.70;87.20;;;;;;4391673;32;20554;-71
2021/04/15 12:04:26;;;;;;;0.20;0.20;;;9.70;87.80;;;;;;4393372;32;20163;-70
2021/04/15 12:06:58;;;;;;;0.20;0.20;;;9.70;89.10;;;;;;4393991;32;20101;-72
2021/04/15 12:09:31;;;;;;;0.30;0.30;;;9.60;89.20;;;;;;4392442;32;20082;-72
2021/04/15 12:12:06;;;;;;;0.30;0.30;;;9.60;90.20;;;;;;4392470;32;20362;-72
2021/04/15 12:14:34;;;;;;;0.30;0.30;;;9.70;90.00;;;;;;4387383;32;20078;-71
2021/04/15 12:17:17;;;;;;;0.20;0.20;;;9.80;89.00;;;;;;4389051;32;20083;-72
2021/04/15 12:19:55;;;;;;;0.22;0.22;;;9.90;88.10;;;;;;4393793;32;20137;-72
2021/04/15 12:22:34;;;;;;;0.20;0.20;;;10.00;87.60;;;;;;4392838;32;20074;-72
2021/04/15 12:25:12;;;;;;;0.40;0.40;;;10.00;86.90;;;;;;4393712;32;20074;-72
2021/04/15 12:27:38;;;;;;;4.28;1.27;;;9.90;85.60;;;;;;4393276;32;20058;-72
2021/04/15 12:30:11;;;;;;;0.30;0.30;;;9.80;86.90;;;;;;4394849;32;20128;-72
2021/04/15 12:32:48;;;;;;;0.30;0.30;;;9.80;86.20;;;;;;4394383;32;20094;-72
2021/04/15 12:35:49;;;;;;;0.20;0.20;;;9.80;86.60;;;;;;4398407;32;20069;-72
2021/04/15 12:38:37;;;;;;;0.30;0.30;;;9.90;86.60;;;;;;4393326;32;20082;-72
2021/04/15 12:41:06;;;;;;;0.20;0.20;;;9.80;85.30;;;;;;4377052;32;20077;-71
2021/04/15 12:43:36;;;;;;;0.30;0.30;;;9.70;87.30;;;;;;4393625;32;20113;-71
2021/04/15 12:46:04;;;;;;;0.30;0.30;;;9.80;87.30;;;;;;4391857;32;20460;-71
2021/04/15 12:48:42;;;;;;;0.20;0.20;;;9.70;87.90;;;;;;4394885;32;20573;-71
2021/04/15 12:51:13;;;;;;;13.55;1.05;;;9.70;87.70;;;;;;4391995;32;20101;-72
2021/04/15 12:53:42;;;;;;;3.12;1.45;;;9.80;87.20;;;;;;4393039;32;20424;-71
2021/04/15 12:56:12;;;;;;;0.20;0.20;;;9.80;87.40;;;;;;4392385;32;20117;-71
2021/04/15 12:58:38;;;;;;;0.30;0.30;;;9.60;87.00;;;;;;4393768;32;20081;-71
2021/04/15 13:01:04;;;;;;;0.30;0.30;;;9.60;87.80;;;;;;4395619;32;20498;-71
2021/04/15 13:03:40;;;;;;;0.30;0.30;;;9.60;86.40;;;;;;4393879;32;20122;-71
2021/04/15 13:06:13;;;;;;;0.20;0.20;;;9.50;87.90;;;;;;4391283;32;20050;-71
2021/04/15 13:08:42;;;;;;;0.20;0.20;;;9.60;88.00;;;;;;4392352;32;20117;-72
2021/04/15 13:11:28;;;;;;;0.62;0.62;;;9.80;85.00;;;;;;4393090;32;20459;-71
2021/04/15 13:13:57;;;;;;;0.30;0.30;;;9.90;84.50;;;;;;4391577;32;20066;-71
2021/04/15 13:16:41;;;;;;;0.32;0.32;;;9.90;85.80;;;;;;4387892;32;20585;-71
2021/04/15 13:19:20;;;;;;;0.20;0.20;;;10.00;86.70;;;;;;4387977;32;20423;-71
2021/04/15 13:22:12;;;;;;;0.20;0.20;;;9.90;87.30;;;;;;4377685;32;20089;-71
2021/04/15 13:24:59;;;;;;;0.20;0.20;;;9.80;88.30;;;;;;4392814;32;20065;-74
2021/04/15 13:27:42;;;;;;;0.20;0.20;;;10.00;86.20;;;;;;4380309;32;20077;-75
2021/04/15 13:30:14;;;;;;;0.20;0.20;;;10.30;84.90;;;;;;4394577;32;20054;-72
2021/04/15 13:33:06;;;;;;;0.28;0.28;;;10.40;80.10;;;;;;4392299;32;20062;-73
2021/04/15 13:35:57;;;;;;;1.20;0.40;;;10.30;80.90;;;;;;4383312;32;20603;-73
2021/04/15 13:38:28;;;;;;;0.40;0.37;;;10.20;80.40;;;;;;4381669;32;20125;-72
2021/04/15 13:40:56;;;;;;;0.45;0.30;;;10.00;79.60;;;;;;4392619;32;20086;-72
2021/04/15 13:43:46;;;;;;;0.30;0.30;;;10.00;79.90;;;;;;4391986;32;20085;-72
2021/04/15 13:46:29;;;;;;;0.20;0.20;;;9.90;79.90;;;;;;4371271;32;20061;-72
2021/04/15 13:49:05;;;;;;;0.30;0.30;;;9.80;80.00;;;;;;4391215;32;20062;-72
2021/04/15 13:51:34;;;;;;;0.20;0.20;;;9.80;80.40;;;;;;4396754;32;20054;-72
2021/04/15 13:54:30;;;;;;;0.40;0.40;;;9.90;81.80;;;;;;4381073;32;20070;-72
2021/04/15 13:57:01;;;;;;;0.62;0.40;;;9.80;81.10;;;;;;4383002;32;20073;-72
2021/04/15 13:59:40;;;;;;;0.22;0.22;;;9.60;81.20;;;;;;4381323;32;20079;-72